Time;durP1;ratioP1;P1;durP2;ratioP2;P2;SDS_P1;SDS_P2;PMS_P1;PMS_P2;Temp;Humidity;BMP_temperature;BMP_pressure;BME280_temperature;BME280_humidity;BME280_pressure;Samples;Min_cycle;Max_cycle;Signal;HPM_P1;HPM_P2
2022/08/04 00:02:45;;;;;;;;;1.50;1.50;;;;;30.40;29.30;100747.41;5023753;28;45360;-59
2022/08/04 00:05:18;;;;;;;;;3.50;3.50;;;;;30.35;29.32;100741.56;4947259;28;45522;-59
2022/08/04 00:08:05;;;;;;;;;3.25;3.00;;;;;30.30;29.25;100741.16;4999449;28;45634;-59
2022/08/04 00:10:33;;;;;;;;;4.75;3.00;;;;;30.29;29.60;100745.75;4999285;28;45391;-59
2022/08/04 00:13:01;;;;;;;;;4.00;3.00;;;;;30.27;29.44;100746.91;5000605;28;45416;-58
2022/08/04 00:15:28;;;;;;;;;3.00;3.00;;;;;30.21;29.57;100737.50;5000574;28;46217;-59
2022/08/04 00:18:04;;;;;;;;;1.25;1.25;;;;;30.22;29.61;100746.50;5000589;28;45282;-59
2022/08/04 00:20:32;;;;;;;;;3.00;3.00;;;;;30.18;29.45;100735.09;4999268;28;45308;-59
2022/08/04 00:22:59;;;;;;;;;4.75;3.00;;;;;30.10;30.00;100718.72;5000584;28;45326;-59
2022/08/04 00:25:24;;;;;;;;;3.00;3.00;;;;;30.14;29.86;100731.00;5000738;28;45305;-59
2022/08/04 00:27:50;;;;;;;;;3.75;2.00;;;;;30.13;29.66;100732.00;5000028;28;46210;-59
2022/08/04 00:30:15;;;;;;;;;2.75;1.25;;;;;30.10;29.73;100730.44;5000941;28;45388;-58
2022/08/04 00:32:41;;;;;;;;;2.00;2.00;;;;;30.05;29.78;100730.03;5000578;28;45260;-58
2022/08/04 00:35:09;;;;;;;;;3.00;2.00;;;;;30.03;29.99;100726.63;4999945;28;48238;-57
2022/08/04 00:37:37;;;;;;;;;2.25;2.00;;;;;30.01;29.86;100725.06;5000367;28;45183;-57
2022/08/04 00:40:29;;;;;;;;;2.00;1.00;;;;;29.97;30.23;100724.50;5000514;28;45360;-57
2022/08/04 00:43:27;;;;;;;;;2.00;2.00;;;;;29.92;30.26;100726.81;4979159;28;45434;-57
2022/08/04 00:46:01;;;;;;;;;5.50;4.50;;;;;29.87;30.44;100727.19;4968674;28;45561;-57
2022/08/04 00:48:35;;;;;;;;;2.00;2.00;;;;;29.82;30.33;100722.25;5000269;28;46626;-57
2022/08/04 00:51:14;;;;;;;;;6.00;4.00;;;;;29.72;30.16;100713.28;5012664;28;45567;-57
2022/08/04 00:53:54;;;;;;;;;5.50;3.00;;;;;29.77;30.41;100729.97;5007006;28;45336;-57
2022/08/04 00:56:36;;;;;;;;;4.75;2.75;;;;;29.74;30.19;100730.25;5000275;28;45322;-57
2022/08/04 00:59:06;;;;;;;;;2.25;2.00;;;;;29.70;30.56;100734.25;4999765;28;45266;-57
2022/08/04 01:01:40;;;;;;;;;2.75;2.00;;;;;29.67;30.83;100740.81;5005559;28;45353;-57
2022/08/04 01:04:17;;;;;;;;;3.50;2.75;;;;;29.63;30.63;100733.97;5001001;28;45236;-57
2022/08/04 01:07:24;;;;;;;;;3.00;3.00;;;;;29.60;30.68;100730.72;5000165;28;45419;-57
2022/08/04 01:10:02;;;;;;;;;2.00;2.00;;;;;29.56;30.77;100727.47;4999631;28;46494;-57
2022/08/04 01:12:49;;;;;;;;;3.50;3.00;;;;;29.54;30.61;100717.78;4999664;28;45327;-57
2022/08/04 01:15:39;;;;;;;;;4.50;3.00;;;;;29.51;30.87;100719.78;4999983;28;45171;-57
2022/08/04 01:18:06;;;;;;;;;2.00;2.00;;;;;29.49;30.86;100719.06;4998426;28;45295;-57
2022/08/04 01:20:52;;;;;;;;;3.00;1.50;;;;;29.47;30.96;100729.19;4999609;28;46136;-57
2022/08/04 01:23:48;;;;;;;;;3.75;2.00;;;;;29.46;30.99;100724.78;4999589;28;45254;-57
2022/08/04 01:26:25;;;;;;;;;3.50;3.50;;;;;29.45;31.22;100731.19;4999872;28;45294;-57
2022/08/04 01:28:53;;;;;;;;;5.00;4.00;;;;;29.42;30.96;100726.06;4999440;28;45503;-58
2022/08/04 01:31:29;;;;;;;;;2.50;2.25;;;;;29.43;30.95;100730.47;4999204;28;45403;-58
2022/08/04 01:33:59;;;;;;;;;3.00;3.00;;;;;29.40;31.20;100719.09;4999549;28;45388;-58
2022/08/04 01:36:25;;;;;;;;;2.50;2.00;;;;;29.40;31.16;100722.66;4999556;28;45345;-58
2022/08/04 01:38:53;;;;;;;;;2.50;2.50;;;;;29.41;31.10;100732.47;4999457;28;45627;-58
2022/08/04 01:41:19;;;;;;;;;5.25;5.25;;;;;29.40;31.02;100729.91;4999211;28;45411;-58
2022/08/04 01:43:45;;;;;;;;;3.25;2.75;;;;;29.39;31.36;100728.22;4999252;28;45327;-58
2022/08/04 01:46:16;;;;;;;;;3.00;3.00;;;;;29.39;31.31;100726.34;5000177;28;45274;-58
2022/08/04 01:48:46;;;;;;;;;2.75;2.75;;;;;29.38;31.14;100729.19;5002695;28;45399;-59
2022/08/04 01:51:12;;;;;;;;;3.00;3.00;;;;;29.38;31.40;100726.50;5017192;28;46093;-58
2022/08/04 01:53:42;;;;;;;;;2.50;2.50;;;;;29.35;31.32;100716.81;5009693;28;45195;-58
2022/08/04 01:56:10;;;;;;;;;2.75;2.00;;;;;29.33;31.37;100716.97;5002931;28;45306;-58
2022/08/04 01:58:36;;;;;;;;;7.00;3.00;;;;;29.33;31.40;100719.69;5002499;28;45479;-58
2022/08/04 02:01:05;;;;;;;;;1.75;1.50;;;;;29.31;31.33;100718.13;5004380;28;45213;-59
2022/08/04 02:03:32;;;;;;;;;3.00;2.00;;;;;29.31;31.30;100710.00;5008379;28;45479;-58
2022/08/04 02:06:26;;;;;;;;;3.00;3.00;;;;;29.30;31.33;100716.41;5002910;28;45368;-58
2022/08/04 02:09:14;;;;;;;;;2.00;2.00;;;;;29.28;31.49;100712.94;5002542;28;45454;-59
2022/08/04 02:11:46;;;;;;;;;3.00;2.25;;;;;29.26;31.53;100707.69;5002292;28;45716;-59
2022/08/04 02:14:41;;;;;;;;;4.00;2.25;;;;;29.24;31.47;100704.25;5001279;28;45525;-58
2022/08/04 02:17:18;;;;;;;;;2.00;2.00;;;;;29.22;31.87;100705.41;5017208;28;45351;-58
2022/08/04 02:20:08;;;;;;;;;3.00;2.25;;;;;29.20;31.45;100708.25;5002783;28;45317;-57
2022/08/04 02:22:46;;;;;;;;;5.00;3.00;;;;;29.17;31.73;100706.69;5002369;28;46338;-57
2022/08/04 02:25:21;;;;;;;;;1.75;1.75;;;;;29.15;31.81;100697.84;5002407;28;45253;-57
2022/08/04 02:27:55;;;;;;;;;3.50;2.50;;;;;29.13;31.74;100702.59;5002261;28;45338;-57
2022/08/04 02:30:26;;;;;;;;;4.50;3.00;;;;;29.13;31.71;100708.00;5002501;28;45293;-57
2022/08/04 02:32:58;;;;;;;;;2.00;2.00;;;;;29.12;31.95;100700.88;5002293;28;45435;-57
2022/08/04 02:35:28;;;;;;;;;3.00;3.00;;;;;29.10;31.87;100700.16;5002440;28;45399;-57
2022/08/04 02:38:30;;;;;;;;;2.25;2.25;;;;;29.08;31.81;100685.94;5002352;28;45426;-57
2022/08/04 02:40:59;;;;;;;;;3.00;3.00;;;;;29.07;31.79;100691.47;4984717;28;45317;-57
2022/08/04 02:43:25;;;;;;;;;2.50;2.50;;;;;29.04;31.97;100700.72;5000703;28;46318;-57
2022/08/04 02:45:55;;;;;;;;;1.75;1.75;;;;;28.98;31.95;100687.78;5002077;28;45171;-57
2022/08/04 02:48:23;;;;;;;;;3.00;3.00;;;;;29.00;32.18;100693.91;5002121;28;45246;-57
2022/08/04 02:50:51;;;;;;;;;3.00;3.00;;;;;28.99;31.98;100695.75;5013652;28;45392;-57
2022/08/04 02:53:21;;;;;;;;;3.00;3.00;;;;;28.96;32.15;100698.72;5027262;28;47080;-57
2022/08/04 02:55:47;;;;;;;;;3.75;3.00;;;;;28.94;32.12;100694.47;5001890;28;45314;-57
2022/08/04 02:58:18;;;;;;;;;2.50;2.50;;;;;28.90;32.16;100688.47;5001623;28;45298;-57
2022/08/04 03:00:44;;;;;;;;;1.50;1.50;;;;;28.89;32.37;100688.63;5001640;28;45361;-57
2022/08/04 03:03:23;;;;;;;;;1.25;1.25;;;;;28.85;32.60;100697.06;5019563;28;46099;-57
2022/08/04 03:06:10;;;;;;;;;2.00;2.00;;;;;28.83;32.20;100704.44;5020571;28;45235;-57
2022/08/04 03:09:04;;;;;;;;;3.00;3.00;;;;;28.78;32.06;100704.00;5021659;28;45567;-57
2022/08/04 03:11:38;;;;;;;;;2.50;2.00;;;;;28.74;32.29;100705.25;5021550;28;45251;-57
2022/08/04 03:14:22;;;;;;;;;3.25;3.00;;;;;28.72;32.26;100712.69;5021484;28;45256;-57
2022/08/04 03:17:29;;;;;;;;;5.50;2.75;;;;;28.68;32.86;100714.81;5021223;28;45329;-57
2022/08/04 03:20:09;;;;;;;;;3.25;2.00;;;;;28.64;32.53;100713.34;5020289;28;45303;-57
2022/08/04 03:23:09;;;;;;;;;2.25;2.25;;;;;28.61;32.51;100716.31;5021353;28;45397;-57
2022/08/04 03:26:12;;;;;;;;;2.25;2.25;;;;;28.59;32.61;100706.66;5021238;28;45349;-57
2022/08/04 03:28:56;;;;;;;;;3.25;2.00;;;;;28.54;32.64;100705.22;4999762;28;45446;-57
2022/08/04 03:31:55;;;;;;;;;2.75;2.75;;;;;28.53;32.29;100702.69;5021153;28;45206;-57
2022/08/04 03:34:35;;;;;;;;;3.00;3.00;;;;;28.51;32.66;100701.94;5021246;28;46179;-57
2022/08/04 03:37:38;;;;;;;;;3.00;3.00;;;;;28.49;32.58;100695.81;5021140;28;46096;-57
2022/08/04 03:40:18;;;;;;;;;3.00;3.00;;;;;28.47;32.77;100698.66;5021184;28;45273;-57
2022/08/04 03:43:12;;;;;;;;;2.25;2.25;;;;;28.46;32.82;100693.41;5020909;28;45272;-57
2022/08/04 03:46:09;;;;;;;;;3.00;3.00;;;;;28.44;32.47;100693.56;5021208;28;45254;-57
2022/08/04 03:48:55;;;;;;;;;4.00;3.00;;;;;28.43;33.17;100696.38;5021071;28;46310;-57
2022/08/04 03:54:21;;;;;;;;;3.00;3.00;;;;;28.38;33.26;100699.50;5002654;28;45411;-57
2022/08/04 03:57:37;;;;;;;;;3.00;3.00;;;;;28.35;33.01;100699.78;5000826;28;45446;-57
2022/08/04 04:00:08;;;;;;;;;4.50;3.75;;;;;28.32;32.82;100710.88;4986803;28;46210;-57
2022/08/04 04:02:51;;;;;;;;;4.25;3.00;;;;;28.28;33.21;100702.19;5014247;28;45363;-57
2022/08/04 04:05:17;;;;;;;;;6.75;5.00;;;;;28.24;33.42;100711.56;5000996;28;45457;-57
2022/08/04 04:08:04;;;;;;;;;4.50;4.00;;;;;28.22;33.33;100708.13;5000908;28;45372;-57
2022/08/04 04:10:52;;;;;;;;;2.00;2.00;;;;;28.19;32.95;100706.56;5000034;28;46103;-57
2022/08/04 04:13:17;;;;;;;;;3.50;3.25;;;;;28.16;33.03;100703.28;5000504;28;45309;-57
2022/08/04 04:15:50;;;;;;;;;4.25;2.50;;;;;28.15;33.71;100704.28;5000923;28;46439;-57
2022/08/04 04:18:24;;;;;;;;;3.00;3.00;;;;;28.14;33.64;100699.84;5000748;28;45258;-56
2022/08/04 04:21:27;;;;;;;;;2.00;2.00;;;;;28.11;33.72;100697.44;5000641;28;46257;-57
2022/08/04 04:24:14;;;;;;;;;4.50;3.00;;;;;28.10;33.18;100696.59;5000660;28;45357;-57
2022/08/04 04:27:18;;;;;;;;;3.50;3.50;;;;;28.07;33.67;100702.25;5000461;28;45310;-57
2022/08/04 04:29:49;;;;;;;;;3.00;2.00;;;;;28.04;33.55;100714.19;4986784;28;45251;-57
2022/08/04 04:32:21;;;;;;;;;2.25;2.25;;;;;28.01;33.60;100714.44;5000215;28;46095;-57
2022/08/04 04:35:05;;;;;;;;;2.75;2.75;;;;;28.01;33.64;100729.78;5000521;28;45245;-57
2022/08/04 04:37:33;;;;;;;;;2.75;2.00;;;;;27.98;33.98;100730.91;5000537;28;45432;-57
2022/08/04 04:40:17;;;;;;;;;2.00;2.00;;;;;27.96;33.80;100732.91;5000492;28;45247;-58
2022/08/04 04:42:54;;;;;;;;;2.75;2.75;;;;;27.90;33.97;100723.47;4999911;28;46203;-57
2022/08/04 04:45:28;;;;;;;;;4.00;3.25;;;;;27.90;33.58;100722.66;5000215;28;45250;-58
2022/08/04 04:47:55;;;;;;;;;5.25;4.00;;;;;27.89;34.00;100737.97;5000079;28;45319;-58
2022/08/04 04:50:38;;;;;;;;;5.75;3.75;;;;;27.85;34.36;100735.69;5007990;28;45202;-58
2022/08/04 04:53:22;;;;;;;;;3.25;2.25;;;;;27.85;34.06;100741.09;5000069;28;46333;-58
2022/08/04 04:55:58;;;;;;;;;2.25;2.25;;;;;27.81;33.93;100743.19;5000237;28;45218;-58
2022/08/04 04:58:25;;;;;;;;;3.00;2.75;;;;;27.78;34.37;100756.09;5000137;28;45272;-59
2022/08/04 05:01:06;;;;;;;;;3.00;3.00;;;;;27.76;33.92;100760.78;4999978;28;45231;-58
2022/08/04 05:03:47;;;;;;;;;2.00;1.25;;;;;27.72;34.33;100769.16;5005521;28;45674;-58
2022/08/04 05:06:22;;;;;;;;;3.75;3.00;;;;;27.70;34.03;100770.28;5015388;28;45415;-59
2022/08/04 05:08:58;;;;;;;;;2.00;1.25;;;;;27.66;34.44;100750.78;4999904;28;45349;-59
2022/08/04 05:12:05;;;;;;;;;2.50;2.50;;;;;27.64;34.26;100744.66;4999959;28;45253;-59
2022/08/04 05:14:34;;;;;;;;;3.50;3.00;;;;;27.62;34.26;100768.22;4999827;28;45530;-59
2022/08/04 05:17:10;;;;;;;;;4.25;2.50;;;;;27.60;34.18;100775.59;4999791;28;45288;-59
2022/08/04 05:19:44;;;;;;;;;2.25;2.25;;;;;27.57;34.14;100765.94;4999972;28;45288;-59
2022/08/04 05:22:23;;;;;;;;;3.00;3.00;;;;;27.55;34.86;100769.75;5018825;28;45477;-59
2022/08/04 05:24:59;;;;;;;;;3.00;3.00;;;;;27.53;34.42;100771.72;5003257;28;45301;-58
2022/08/04 05:27:30;;;;;;;;;5.00;3.25;;;;;27.49;34.75;100765.72;5003175;28;45329;-59
2022/08/04 05:30:01;;;;;;;;;5.25;4.50;;;;;27.46;34.83;100776.78;5003368;28;45250;-59
2022/08/04 05:32:36;;;;;;;;;3.00;3.00;;;;;27.43;34.83;100774.34;5003115;28;45331;-58
2022/08/04 05:35:10;;;;;;;;;4.50;3.00;;;;;27.40;34.45;100771.91;5003097;28;45430;-59
2022/08/04 05:37:39;;;;;;;;;2.25;2.25;;;;;27.40;34.74;100780.00;5003195;28;45336;-58
2022/08/04 05:40:06;;;;;;;;;2.25;2.25;;;;;27.36;34.81;100783.94;5003375;28;45269;-58
2022/08/04 05:42:37;;;;;;;;;4.00;3.25;;;;;27.38;34.58;100785.50;5002927;28;45397;-58
2022/08/04 05:45:05;;;;;;;;;4.25;2.75;;;;;27.35;34.76;100791.16;5003092;28;46447;-58
2022/08/04 05:47:32;;;;;;;;;3.25;2.25;;;;;27.38;35.04;100803.53;5018223;28;45866;-59
2022/08/04 05:50:00;;;;;;;;;3.00;3.00;;;;;27.37;34.58;100801.81;5007535;28;45317;-59
2022/08/04 05:52:26;;;;;;;;;6.25;2.75;;;;;27.38;35.21;100798.13;5018806;28;45599;-58
2022/08/04 05:54:54;;;;;;;;;4.75;2.50;;;;;27.38;34.73;100787.34;5002873;28;46507;-59
2022/08/04 05:57:20;;;;;;;;;3.00;3.00;;;;;27.36;34.48;100775.84;5002709;28;45234;-59
2022/08/04 05:59:47;;;;;;;;;4.25;3.25;;;;;27.37;35.25;100774.81;5003053;28;45160;-59
2022/08/04 06:02:16;;;;;;;;;4.50;4.00;;;;;27.34;35.18;100769.72;5010322;28;45435;-58
2022/08/04 06:04:45;;;;;;;;;4.50;4.50;;;;;27.33;34.89;100771.56;5002649;28;46169;-59
2022/08/04 06:07:12;;;;;;;;;4.00;3.50;;;;;27.32;35.05;100758.19;5002709;28;45221;-58
2022/08/04 06:09:39;;;;;;;;;5.00;4.00;;;;;27.28;34.98;100754.03;5001592;28;45251;-58
2022/08/04 06:12:13;;;;;;;;;4.50;3.50;;;;;27.27;35.19;100763.97;5002363;28;45345;-58
2022/08/04 06:14:41;;;;;;;;;7.00;4.00;;;;;27.24;35.14;100762.41;5001667;28;45457;-58
2022/08/04 06:17:10;;;;;;;;;3.50;3.50;;;;;27.24;35.38;100754.31;5002488;28;45259;-58
2022/08/04 06:19:39;;;;;;;;;3.50;2.50;;;;;27.25;34.99;100763.25;5002802;28;45384;-58
2022/08/04 06:22:07;;;;;;;;;3.50;3.25;;;;;27.22;35.64;100776.97;5002229;28;45419;-58
2022/08/04 06:24:36;;;;;;;;;5.00;3.25;;;;;27.20;35.56;100771.72;5001218;28;45322;-58
2022/08/04 06:27:03;;;;;;;;;3.00;3.00;;;;;27.21;35.72;100783.38;5002367;28;45434;-58
2022/08/04 06:29:36;;;;;;;;;4.00;4.00;;;;;27.20;35.72;100787.06;5002444;28;45328;-58
2022/08/04 06:32:23;;;;;;;;;3.00;3.00;;;;;27.20;35.87;100796.00;5001550;28;45384;-58
2022/08/04 06:34:50;;;;;;;;;4.00;3.00;;;;;27.21;35.72;100792.31;5001718;28;45576;-58
2022/08/04 06:37:17;;;;;;;;;3.75;3.75;;;;;27.22;35.13;100794.03;5002311;28;45292;-58
2022/08/04 06:39:43;;;;;;;;;5.00;3.50;;;;;27.23;35.52;100793.06;5002300;28;45275;-58
2022/08/04 06:42:08;;;;;;;;;3.75;3.00;;;;;27.25;35.20;100796.47;5001837;28;45400;-58
2022/08/04 06:44:35;;;;;;;;;2.50;2.50;;;;;27.28;35.49;100794.50;5002180;28;45229;-58
2022/08/04 06:47:02;;;;;;;;;3.75;2.75;;;;;27.31;35.97;100786.13;5002276;28;45320;-58
2022/08/04 06:49:30;;;;;;;;;4.00;4.00;;;;;27.33;35.38;100790.44;5002344;28;45437;-58
2022/08/04 06:51:57;;;;;;;;;4.00;4.00;;;;;27.39;35.38;100791.75;5020573;28;45322;-58
2022/08/04 06:54:22;;;;;;;;;6.00;4.00;;;;;27.43;35.89;100793.22;5002529;28;46411;-59
2022/08/04 06:56:50;;;;;;;;;4.00;4.00;;;;;27.46;35.76;100801.06;5001620;28;45512;-58
2022/08/04 06:59:17;;;;;;;;;3.50;3.50;;;;;27.50;35.51;100799.81;5002080;28;45286;-58
2022/08/04 07:01:44;;;;;;;;;5.75;4.75;;;;;27.54;35.85;100801.25;5008338;28;45502;-59
2022/08/04 07:04:11;;;;;;;;;3.50;2.75;;;;;27.59;35.88;100810.81;5001565;28;45392;-58
2022/08/04 07:06:36;;;;;;;;;4.25;4.25;;;;;27.57;35.27;100802.84;5001706;28;45337;-58
2022/08/04 07:09:02;;;;;;;;;48.00;37.25;;;;;27.63;35.24;100813.09;5001521;28;45242;-58
2022/08/04 07:11:28;;;;;;;;;5.50;3.50;;;;;27.65;35.65;100818.41;5001496;28;45301;-58
2022/08/04 07:13:54;;;;;;;;;3.25;2.00;;;;;27.66;35.56;100825.47;5001734;28;45320;-58
2022/08/04 07:16:20;;;;;;;;;8.75;8.00;;;;;27.69;35.21;100831.47;5001467;28;45271;-58
2022/08/04 07:18:46;;;;;;;;;5.00;3.25;;;;;27.70;35.68;100829.66;5001819;28;45239;-58
2022/08/04 07:21:19;;;;;;;;;4.00;4.00;;;;;27.70;35.22;100827.81;5002255;28;45251;-58
2022/08/04 07:23:45;;;;;;;;;4.25;3.00;;;;;27.70;34.94;100832.34;5001745;28;45471;-58
2022/08/04 07:26:11;;;;;;;;;5.75;2.25;;;;;27.75;35.44;100832.81;5001381;28;45202;-58
2022/08/04 07:28:37;;;;;;;;;3.00;3.00;;;;;27.78;35.11;100839.78;5002127;28;45373;-58
2022/08/04 07:31:04;;;;;;;;;5.25;3.00;;;;;27.80;35.43;100841.38;5001275;28;45313;-59
2022/08/04 07:33:31;;;;;;;;;4.50;4.50;;;;;27.81;35.58;100848.47;5001470;28;45360;-58
2022/08/04 07:35:56;;;;;;;;;6.50;5.00;;;;;27.85;35.27;100851.78;5001230;28;45304;-59
2022/08/04 07:38:22;;;;;;;;;7.25;4.50;;;;;27.87;35.19;100853.34;5001595;28;45269;-58
2022/08/04 07:40:48;;;;;;;;;5.00;3.75;;;;;27.88;35.13;100855.03;5001185;28;45408;-59
2022/08/04 07:43:15;;;;;;;;;5.00;4.00;;;;;27.95;35.51;100865.31;5001175;28;45284;-58
2022/08/04 07:45:41;;;;;;;;;3.50;3.25;;;;;28.00;35.52;100852.28;5001133;28;45326;-59
2022/08/04 07:48:09;;;;;;;;;3.00;3.00;;;;;28.03;35.52;100860.13;5001149;28;45411;-58
2022/08/04 07:50:37;;;;;;;;;2.00;2.00;;;;;28.07;35.27;100848.09;5010401;28;45515;-59
2022/08/04 07:53:02;;;;;;;;;3.25;3.00;;;;;28.12;35.55;100855.81;5028123;28;46244;-59
2022/08/04 07:55:28;;;;;;;;;5.75;4.25;;;;;28.15;35.40;100851.00;5000957;28;45246;-59
2022/08/04 07:57:54;;;;;;;;;6.00;4.25;;;;;28.22;35.62;100852.16;5001140;28;45408;-59
2022/08/04 08:00:19;;;;;;;;;3.75;2.00;;;;;28.28;35.61;100849.94;5001181;28;45233;-59
2022/08/04 08:02:48;;;;;;;;;5.50;4.50;;;;;28.33;34.99;100850.38;5008816;28;45481;-59
2022/08/04 08:05:17;;;;;;;;;5.00;4.50;;;;;28.37;35.31;100851.81;5000972;28;45338;-59
2022/08/04 08:07:50;;;;;;;;;5.50;3.00;;;;;28.41;35.15;100855.09;5001094;28;45289;-59
2022/08/04 08:10:16;;;;;;;;;9.75;8.50;;;;;28.44;34.75;100865.63;5000971;28;45315;-59
2022/08/04 08:12:42;;;;;;;;;4.00;3.25;;;;;28.44;35.28;100873.72;4999242;28;46980;-59
2022/08/04 08:15:11;;;;;;;;;4.75;4.75;;;;;28.48;35.23;100867.09;5000966;28;45453;-58
2022/08/04 08:17:37;;;;;;;;;4.50;4.00;;;;;28.49;35.20;100882.28;5000912;28;45238;-59
2022/08/04 08:20:03;;;;;;;;;3.25;3.25;;;;;28.49;34.85;100885.00;5000691;28;45410;-59
2022/08/04 08:22:30;;;;;;;;;5.00;3.75;;;;;28.50;34.92;100884.00;5000574;28;46379;-59
2022/08/04 08:24:56;;;;;;;;;8.00;3.00;;;;;28.51;34.71;100888.41;5000566;28;45385;-59
2022/08/04 08:27:22;;;;;;;;;5.00;4.75;;;;;28.49;35.18;100887.69;5000516;28;45297;-59
2022/08/04 08:29:48;;;;;;;;;4.00;4.00;;;;;28.45;35.02;100881.72;5000641;28;45234;-58
2022/08/04 08:32:14;;;;;;;;;4.00;4.00;;;;;28.44;35.52;100873.72;4999138;28;45420;-58
2022/08/04 08:34:41;;;;;;;;;4.50;3.75;;;;;28.42;35.07;100887.38;5000508;28;45416;-59
2022/08/04 08:37:17;;;;;;;;;5.00;4.00;;;;;28.38;35.65;100902.16;5000600;28;45240;-59
2022/08/04 08:39:49;;;;;;;;;5.00;3.25;;;;;28.32;35.55;100913.50;5000211;28;45463;-59
2022/08/04 08:42:36;;;;;;;;;6.75;3.75;;;;;28.28;35.69;100903.97;4998754;28;47481;-59
2022/08/04 08:45:11;;;;;;;;;7.00;5.00;;;;;28.23;35.43;100923.25;5000462;28;45372;-59
2022/08/04 08:47:58;;;;;;;;;3.00;3.00;;;;;28.18;35.90;100903.91;5000474;28;45296;-59
2022/08/04 08:51:00;;;;;;;;;6.00;5.00;;;;;28.12;35.77;100899.03;5008364;28;45540;-59
2022/08/04 08:53:50;;;;;;;;;6.50;5.75;;;;;28.04;35.89;100919.44;5000230;28;45318;-59
2022/08/04 08:56:44;;;;;;;;;6.00;3.00;;;;;28.00;36.10;100904.47;4999772;28;45334;-59
2022/08/04 08:59:47;;;;;;;;;6.25;3.00;;;;;27.96;36.00;100888.63;5000144;28;45534;-58
2022/08/04 09:02:27;;;;;;;;;5.75;4.00;;;;;27.93;36.06;100886.22;5007842;28;45273;-59
2022/08/04 09:05:17;;;;;;;;;5.25;4.00;;;;;27.90;36.28;100880.09;5015327;28;48642;-59
2022/08/04 09:08:04;;;;;;;;;4.00;3.00;;;;;27.91;36.91;100878.22;5000141;28;45331;-59
2022/08/04 09:10:46;;;;;;;;;5.00;5.00;;;;;27.90;36.50;100863.88;4999958;28;45424;-59
2022/08/04 09:13:29;;;;;;;;;4.75;3.75;;;;;27.92;37.11;100858.34;4999855;28;45708;-59
2022/08/04 09:16:07;;;;;;;;;5.75;4.75;;;;;27.96;36.85;100869.75;5014625;28;46882;-58
2022/08/04 09:18:43;;;;;;;;;6.50;5.25;;;;;27.99;36.93;100896.50;4999793;28;45379;-59
2022/08/04 09:21:36;;;;;;;;;9.00;4.75;;;;;28.03;37.00;100911.44;4999958;28;45354;-58
2022/08/04 09:24:17;;;;;;;;;6.25;5.00;;;;;28.05;36.75;100904.94;4999697;28;45223;-58
2022/08/04 09:26:49;;;;;;;;;4.75;4.25;;;;;28.08;37.33;100903.81;4998111;28;47874;-59
2022/08/04 09:29:26;;;;;;;;;5.50;4.25;;;;;28.11;37.41;100911.66;5015011;28;45471;-59
2022/08/04 09:32:13;;;;;;;;;5.25;4.25;;;;;28.12;37.49;100921.47;4998588;28;45345;-59
2022/08/04 09:35:09;;;;;;;;;9.50;4.75;;;;;28.14;37.36;100911.41;4999674;28;45258;-58
2022/08/04 09:37:59;;;;;;;;;6.00;5.00;;;;;28.16;37.54;100908.56;4999540;28;46351;-58
2022/08/04 09:40:44;;;;;;;;;3.00;3.00;;;;;28.18;37.52;100902.03;4999848;28;45431;-59
2022/08/04 09:43:25;;;;;;;;;6.00;5.50;;;;;28.21;37.23;100909.91;4999569;28;45443;-58
2022/08/04 09:46:15;;;;;;;;;5.00;5.00;;;;;28.26;37.32;100911.31;4999472;28;45237;-59
2022/08/04 09:49:09;;;;;;;;;7.00;6.00;;;;;28.31;37.57;100911.78;4999511;28;46390;-58
2022/08/04 09:51:52;;;;;;;;;5.75;4.00;;;;;28.35;37.69;100924.03;5016653;28;45367;-58
2022/08/04 09:54:32;;;;;;;;;5.75;4.00;;;;;28.42;37.62;100921.66;5001094;28;45339;-58
2022/08/04 09:57:13;;;;;;;;;6.00;4.50;;;;;28.48;37.33;100918.44;4999231;28;45261;-58
2022/08/04 10:00:16;;;;;;;;;3.75;3.75;;;;;28.54;37.36;100915.16;4999275;28;45372;-58
2022/08/04 10:02:49;;;;;;;;;5.50;5.50;;;;;28.60;37.50;100897.56;5002867;28;45462;-58
2022/08/04 10:05:20;;;;;;;;;6.50;6.50;;;;;28.67;37.21;100898.78;4998109;28;45270;-60
2022/08/04 10:07:57;;;;;;;;;7.75;7.00;;;;;28.75;37.47;100900.78;4999999;28;45318;-58
2022/08/04 10:10:35;;;;;;;;;7.25;5.25;;;;;28.83;37.27;100904.53;5002537;28;46383;-58
2022/08/04 10:13:30;;;;;;;;;5.50;4.50;;;;;28.91;37.19;100916.50;5002460;28;45301;-58
2022/08/04 10:16:27;;;;;;;;;4.00;2.50;;;;;28.96;37.41;100898.84;5002747;28;45300;-58
2022/08/04 10:19:10;;;;;;;;;1.25;1.25;;;;;28.99;36.87;100904.00;5002670;28;45334;-58
2022/08/04 10:22:07;;;;;;;;;4.25;3.50;;;;;29.01;37.09;100895.75;5002357;28;46173;-58
2022/08/04 10:25:10;;;;;;;;;3.25;3.25;;;;;29.05;37.06;100899.03;5002412;28;45443;-58
2022/08/04 10:27:54;;;;;;;;;2.00;2.00;;;;;29.07;36.97;100910.56;5002356;28;45245;-58
2022/08/04 10:30:21;;;;;;;;;4.50;3.25;;;;;29.11;36.96;100904.72;5002435;28;45579;-58
2022/08/04 10:33:13;;;;;;;;;6.00;5.50;;;;;29.17;36.90;100906.03;5002096;28;46381;-59
2022/08/04 10:35:47;;;;;;;;;4.00;3.00;;;;;29.22;36.78;100905.59;5002411;28;45171;-58
2022/08/04 10:38:29;;;;;;;;;6.00;4.00;;;;;29.31;37.15;100905.66;5002278;28;45256;-58
2022/08/04 10:41:10;;;;;;;;;5.25;3.75;;;;;29.37;37.16;100898.84;5002132;28;45277;-59
2022/08/04 10:44:05;;;;;;;;;6.25;6.00;;;;;29.53;37.17;100897.41;5002134;28;46245;-59
2022/08/04 10:46:38;;;;;;;;;3.25;3.25;;;;;29.70;37.50;100883.16;5002241;28;45245;-58
2022/08/04 10:49:08;;;;;;;;;4.50;3.00;;;;;29.94;37.32;100877.31;5002088;28;45241;-59
2022/08/04 10:51:40;;;;;;;;;4.00;2.50;;;;;30.20;37.80;100881.25;5019687;28;45218;-58
2022/08/04 10:54:10;;;;;;;;;2.75;2.00;;;;;30.50;37.31;100888.31;5020376;28;46953;-58
2022/08/04 10:56:48;;;;;;;;;4.00;4.00;;;;;30.85;37.64;100877.75;5001893;28;45262;-58
2022/08/04 11:00:02;;;;;;;;;4.50;3.00;;;;;31.26;37.32;100880.94;5002017;28;45471;-58
2022/08/04 11:02:59;;;;;;;;;6.50;2.50;;;;;31.76;37.24;100891.28;5004400;28;45327;-58
2022/08/04 11:05:47;;;;;;;;;2.75;2.75;;;;;32.20;37.11;100889.56;5021565;28;46078;-58
2022/08/04 11:08:33;;;;;;;;;4.50;1.75;;;;;32.63;37.10;100903.22;5021536;28;45428;-58
2022/08/04 11:11:08;;;;;;;;;4.00;2.25;;;;;33.10;36.50;100896.47;5021650;28;45251;-58
2022/08/04 11:13:52;;;;;;;;;4.50;4.25;;;;;33.63;36.42;100900.66;5021592;28;45435;-58
2022/08/04 11:16:28;;;;;;;;;3.75;3.25;;;;;34.11;35.93;100902.72;5021399;28;46132;-58
2022/08/04 11:19:18;;;;;;;;;4.25;3.00;;;;;34.56;35.82;100890.34;5021142;28;45419;-58
2022/08/04 11:21:55;;;;;;;;;1.50;1.00;;;;;35.05;35.32;100888.44;5021570;28;45416;-58
2022/08/04 11:24:39;;;;;;;;;3.50;3.50;;;;;35.54;35.42;100893.59;5021375;28;45294;-58
2022/08/04 11:27:10;;;;;;;;;2.50;2.00;;;;;35.97;35.04;100889.50;5021147;28;45241;-58
2022/08/04 11:30:02;;;;;;;;;1.00;1.00;;;;;36.40;34.12;100901.56;5036524;28;45341;-58
2022/08/04 11:32:52;;;;;;;;;2.00;2.00;;;;;36.82;33.98;100903.75;5020000;28;45354;-57
2022/08/04 11:35:29;;;;;;;;;2.00;2.00;;;;;37.21;33.61;100905.31;5036525;28;45327;-57
2022/08/04 11:38:10;;;;;;;;;3.25;2.00;;;;;37.55;33.48;100907.38;5020993;28;46525;-58
2022/08/04 11:40:42;;;;;;;;;2.50;2.25;;;;;37.88;32.65;100911.50;5021147;28;45491;-58
2022/08/04 11:43:22;;;;;;;;;2.00;2.00;;;;;38.17;32.28;100904.94;5021013;28;45361;-58
2022/08/04 11:45:56;;;;;;;;;2.00;2.00;;;;;38.50;32.41;100912.56;5036390;28;45487;-58
2022/08/04 11:48:33;;;;;;;;;2.00;1.00;;;;;38.77;32.15;100906.38;5020930;28;46062;-58
2022/08/04 11:51:01;;;;;;;;;2.00;2.00;;;;;38.99;31.75;100910.69;5020822;28;45300;-58
2022/08/04 11:53:28;;;;;;;;;2.50;1.25;;;;;39.22;31.38;100906.78;5009684;28;45174;-57
2022/08/04 11:55:59;;;;;;;;;1.75;1.25;;;;;39.36;30.91;100909.53;5001017;28;45337;-56
2022/08/04 11:58:24;;;;;;;;;5.75;3.00;;;;;39.41;30.46;100907.88;5000829;28;45420;-56
2022/08/04 12:01:04;;;;;;;;;2.50;2.50;;;;;39.32;29.96;100912.72;5000547;28;45230;-56
2022/08/04 12:03:51;;;;;;;;;3.50;2.00;;;;;39.13;29.21;100908.00;5006831;28;45312;-56
2022/08/04 12:06:27;;;;;;;;;1.00;1.00;;;;;38.92;29.57;100914.47;5000990;28;45563;-56
2022/08/04 12:09:01;;;;;;;;;3.00;1.25;;;;;38.72;29.09;100917.09;5000527;28;45282;-56
2022/08/04 12:11:52;;;;;;;;;6.00;2.75;;;;;38.48;28.93;100906.44;5000582;28;45325;-56